Time;durP1;ratioP1;P1;durP2;ratioP2;P2;SDS_P1;SDS_P2;PMS_P1;PMS_P2;Temp;Humidity;BMP_temperature;BMP_pressure;BME280_temperature;BME280_humidity;BME280_pressure;Samples;Min_cycle;Max_cycle;Signal;HPM_P1;HPM_P2
2021/09/05 00:02:17;;;;;;;;;23.50;21.50;;;;;22.14;69.35;101317.72;4924378;28;46441;-75
2021/09/05 00:04:42;;;;;;;;;30.00;23.50;;;;;22.10;69.19;101320.00;4921646;28;45597;-75
2021/09/05 00:07:08;;;;;;;;;24.00;22.00;;;;;22.06;70.00;101320.66;4913979;28;45936;-74
2021/09/05 00:09:35;;;;;;;;;21.75;21.25;;;;;22.03;69.94;101304.91;4909912;28;45474;-76
2021/09/05 00:12:00;;;;;;;;;24.50;23.50;;;;;22.02;69.75;101305.97;4915403;28;46214;-75
2021/09/05 00:14:26;;;;;;;;;22.75;21.00;;;;;22.03;69.62;101304.91;4918479;28;45372;-75
2021/09/05 00:16:51;;;;;;;;;26.25;23.50;;;;;22.02;69.49;101305.97;4926944;28;45581;-75
2021/09/05 00:19:17;;;;;;;;;23.75;22.25;;;;;22.02;69.89;101309.47;4921670;28;45296;-74
2021/09/05 00:21:42;;;;;;;;;30.00;24.00;;;;;21.99;69.69;101298.31;4913651;28;45531;-75
2021/09/05 00:24:08;;;;;;;;;22.75;20.50;;;;;22.01;69.52;101302.44;4911294;28;45478;-75
2021/09/05 00:26:33;;;;;;;;;25.00;22.50;;;;;21.97;69.81;101306.59;4915532;28;45513;-75
2021/09/05 00:28:59;;;;;;;;;28.25;24.00;;;;;21.98;70.59;101302.84;4915745;28;51138;-75
2021/09/05 00:31:24;;;;;;;;;24.25;23.25;;;;;21.95;69.81;101305.16;4913246;28;46240;-75
2021/09/05 00:33:50;;;;;;;;;26.50;22.75;;;;;21.94;70.16;101315.09;4923357;28;45478;-75
2021/09/05 00:36:15;;;;;;;;;27.00;23.75;;;;;21.93;70.19;101310.72;4909424;28;46373;-75
2021/09/05 00:38:41;;;;;;;;;23.75;22.00;;;;;21.88;70.07;101303.31;4914668;28;45483;-74
2021/09/05 00:41:06;;;;;;;;;24.50;21.00;;;;;21.87;70.94;101309.72;4925813;28;46339;-75
2021/09/05 00:43:31;;;;;;;;;23.75;20.25;;;;;21.84;71.85;101322.78;4920473;28;45611;-74
2021/09/05 00:45:57;;;;;;;;;24.25;23.00;;;;;21.74;69.96;101315.13;4911936;28;45395;-74
2021/09/05 00:48:22;;;;;;;;;17.75;17.50;;;;;21.74;70.58;101317.81;4925500;28;45581;-74
2021/09/05 00:50:48;;;;;;;;;20.25;18.75;;;;;21.71;70.49;101312.00;4926608;28;46995;-75
2021/09/05 00:53:13;;;;;;;;;21.25;20.25;;;;;21.77;70.43;101316.56;4927567;28;45520;-75
2021/09/05 00:55:39;;;;;;;;;26.00;23.50;;;;;21.74;69.64;101317.00;4919589;28;45593;-75
2021/09/05 00:58:08;;;;;;;;;22.25;22.25;;;;;21.73;69.72;101308.06;4915017;28;45580;-74
2021/09/05 01:00:35;;;;;;;;;20.50;19.75;;;;;21.72;69.97;101314.50;4923898;28;46060;-75
2021/09/05 01:03:03;;;;;;;;;22.00;20.25;;;;;21.75;70.03;101318.63;4912951;28;46030;-74
2021/09/05 01:05:30;;;;;;;;;24.25;21.50;;;;;21.74;70.34;101317.00;4914317;28;45511;-76
2021/09/05 01:07:55;;;;;;;;;23.75;21.00;;;;;21.74;70.10;101322.38;4912973;28;48078;-75
2021/09/05 01:10:21;;;;;;;;;20.50;20.00;;;;;21.69;69.92;101318.44;4915982;28;46748;-75
2021/09/05 01:12:46;;;;;;;;;25.50;23.00;;;;;21.67;69.71;101307.06;4911306;28;45508;-75
2021/09/05 01:15:12;;;;;;;;;22.25;21.00;;;;;21.65;69.83;101302.91;4917600;28;45393;-75
2021/09/05 01:17:38;;;;;;;;;23.75;20.75;;;;;21.66;70.01;101301.88;4929630;28;45542;-75
2021/09/05 01:20:08;;;;;;;;;20.00;19.75;;;;;21.65;70.00;101303.75;4916236;28;45415;-75
2021/09/05 01:22:35;;;;;;;;;21.25;19.75;;;;;21.63;69.89;101303.13;4911392;28;45574;-75
2021/09/05 01:25:01;;;;;;;;;23.25;20.50;;;;;21.63;69.97;101321.94;4911295;28;45554;-75
2021/09/05 01:27:26;;;;;;;;;23.00;20.25;;;;;21.62;69.98;101320.31;4922850;28;45450;-75
2021/09/05 01:29:52;;;;;;;;;20.00;17.75;;;;;21.61;69.97;101329.41;4915098;28;46278;-75
2021/09/05 01:32:18;;;;;;;;;20.75;18.75;;;;;21.60;69.70;101325.06;4913326;28;46128;-75
2021/09/05 01:34:44;;;;;;;;;22.00;19.25;;;;;21.60;70.05;101327.75;4913045;28;45677;-75
2021/09/05 01:37:10;;;;;;;;;20.25;19.75;;;;;21.58;69.93;101319.06;4911825;28;45598;-75
2021/09/05 01:39:35;;;;;;;;;24.00;20.00;;;;;21.57;69.78;101330.84;4909364;28;50778;-75
2021/09/05 01:42:00;;;;;;;;;20.00;16.50;;;;;21.56;69.68;101323.84;4910814;28;45528;-75
2021/09/05 01:44:26;;;;;;;;;19.00;18.75;;;;;21.55;69.76;101332.09;4913354;28;45491;-75
2021/09/05 01:46:52;;;;;;;;;16.50;16.25;;;;;21.52;69.95;101325.28;4918726;28;45543;-76
2021/09/05 01:49:17;;;;;;;;;22.00;17.25;;;;;21.50;70.24;101324.66;4925547;28;46192;-76
2021/09/05 01:51:43;;;;;;;;;20.25;19.50;;;;;21.49;70.20;101333.78;4911628;28;45487;-75
2021/09/05 01:54:08;;;;;;;;;17.75;17.25;;;;;21.47;70.19;101333.16;4924866;28;46846;-76
2021/09/05 01:56:35;;;;;;;;;20.00;19.00;;;;;21.45;70.11;101329.81;4929578;28;45609;-76
2021/09/05 01:59:02;;;;;;;;;19.50;18.75;;;;;21.44;69.81;101333.56;4923975;28;47127;-76
2021/09/05 02:01:29;;;;;;;;;21.00;17.75;;;;;21.44;70.15;101333.56;4919072;28;45548;-77
2021/09/05 02:03:54;;;;;;;;;20.50;19.75;;;;;21.44;69.91;101334.38;4913422;28;45488;-77
2021/09/05 02:06:20;;;;;;;;;22.75;17.75;;;;;21.43;70.17;101339.97;4907567;28;45618;-76
2021/09/05 02:08:46;;;;;;;;;18.75;17.00;;;;;21.42;69.86;101336.44;4913574;28;45824;-76
2021/09/05 02:11:12;;;;;;;;;20.50;18.25;;;;;21.41;70.14;101333.94;4912410;28;45471;-76
2021/09/05 02:13:37;;;;;;;;;21.25;17.75;;;;;21.41;70.02;101332.13;4912207;28;45881;-76
2021/09/05 02:16:03;;;;;;;;;19.50;19.00;;;;;21.40;70.28;101338.50;4919488;28;46082;-76
2021/09/05 02:18:28;;;;;;;;;19.25;18.25;;;;;21.41;70.03;101339.34;4907772;28;47390;-75
2021/09/05 02:20:55;;;;;;;;;20.75;18.50;;;;;21.40;70.30;101337.69;4913406;28;45472;-76
2021/09/05 02:23:21;;;;;;;;;19.75;18.50;;;;;21.40;70.04;101338.50;4913572;28;45498;-77
2021/09/05 02:25:46;;;;;;;;;21.50;19.75;;;;;21.38;70.37;101334.34;4912126;28;45710;-76
2021/09/05 02:28:12;;;;;;;;;17.75;16.75;;;;;21.37;70.38;101336.22;4911183;28;47268;-76
2021/09/05 02:30:37;;;;;;;;;21.25;19.00;;;;;21.39;70.49;101333.31;4909354;28;45647;-76
2021/09/05 02:33:04;;;;;;;;;23.50;20.25;;;;;21.37;70.87;101338.06;4910242;28;45391;-75
2021/09/05 02:35:29;;;;;;;;;19.50;18.00;;;;;21.36;70.88;101328.34;4923446;28;45492;-76
2021/09/05 02:37:55;;;;;;;;;20.25;17.50;;;;;21.37;71.18;101332.69;4914424;28;46216;-76
2021/09/05 02:40:22;;;;;;;;;21.00;18.50;;;;;21.34;70.30;101333.94;4911081;28;45424;-76
2021/09/05 02:42:47;;;;;;;;;23.25;18.50;;;;;21.32;70.83;101335.19;4911513;28;45657;-76
2021/09/05 02:45:13;;;;;;;;;17.75;16.00;;;;;21.32;70.86;101332.50;4908772;28;45442;-76
2021/09/05 02:47:38;;;;;;;;;21.50;18.50;;;;;21.31;71.04;101328.13;4913600;28;47096;-76
2021/09/05 02:50:05;;;;;;;;;20.00;19.50;;;;;21.31;71.02;101337.00;4911359;28;45403;-76
2021/09/05 02:52:31;;;;;;;;;21.75;20.00;;;;;21.29;70.91;101333.72;4914512;28;45751;-75
2021/09/05 02:54:56;;;;;;;;;20.50;18.00;;;;;21.28;70.80;101332.06;4922089;28;45451;-76
2021/09/05 02:57:22;;;;;;;;;18.25;18.25;;;;;21.26;70.84;101334.97;4907384;28;46296;-76
2021/09/05 02:59:47;;;;;;;;;22.50;20.75;;;;;21.25;71.55;101330.59;4929326;28;45604;-76
2021/09/05 03:02:12;;;;;;;;;20.50;19.00;;;;;21.22;71.34;101346.34;4912532;28;52344;-77
2021/09/05 03:04:38;;;;;;;;;18.75;17.25;;;;;21.19;71.23;101331.44;4912059;28;45412;-76
2021/09/05 03:07:03;;;;;;;;;22.25;21.75;;;;;21.17;72.45;101338.88;4910533;28;47062;-76
2021/09/05 03:09:29;;;;;;;;;22.25;20.50;;;;;21.09;71.54;101336.38;4911525;28;45462;-76
2021/09/05 03:11:54;;;;;;;;;21.25;16.50;;;;;21.04;71.48;101337.00;4912542;28;45450;-76
2021/09/05 03:14:19;;;;;;;;;19.50;19.50;;;;;21.06;71.59;101336.78;4924952;28;45640;-76
2021/09/05 03:16:45;;;;;;;;;25.50;22.25;;;;;21.03;71.69;101331.81;4916065;28;45467;-76
2021/09/05 03:19:11;;;;;;;;;20.50;20.50;;;;;21.03;72.17;101337.19;4912147;28;45471;-76
2021/09/05 03:21:39;;;;;;;;;22.25;21.50;;;;;21.05;71.74;101337.81;4925819;28;45490;-76
2021/09/05 03:24:05;;;;;;;;;24.00;20.25;;;;;21.06;71.27;101336.78;4929156;28;45439;-76
2021/09/05 03:26:31;;;;;;;;;21.75;19.75;;;;;21.07;71.26;101333.09;4916508;28;46156;-76
2021/09/05 03:28:56;;;;;;;;;19.25;17.75;;;;;21.07;71.44;101327.72;4915080;28;45840;-76
2021/09/05 03:31:21;;;;;;;;;23.00;20.00;;;;;21.09;71.06;101332.84;4918939;28;45419;-76
2021/09/05 03:33:47;;;;;;;;;19.75;19.00;;;;;21.11;71.48;101333.50;4925143;28;47948;-76
2021/09/05 03:36:12;;;;;;;;;17.50;15.00;;;;;21.10;71.00;101327.28;4910564;28;45604;-76
2021/09/05 03:38:37;;;;;;;;;19.50;16.00;;;;;21.10;71.08;101326.47;4928399;28;45832;-76
2021/09/05 03:41:03;;;;;;;;;18.50;16.00;;;;;21.10;71.33;101321.91;4915580;28;45881;-77
2021/09/05 03:43:28;;;;;;;;;19.75;19.25;;;;;21.10;71.08;101327.28;4914159;28;45480;-76
2021/09/05 03:45:53;;;;;;;;;19.75;19.00;;;;;21.11;70.85;101330.81;4914790;28;48705;-76
2021/09/05 03:48:19;;;;;;;;;17.25;17.25;;;;;21.12;70.95;101325.22;4910689;28;45535;-76
2021/09/05 03:50:44;;;;;;;;;20.50;16.75;;;;;21.11;70.85;101318.19;4916381;28;45423;-76
2021/09/05 03:53:09;;;;;;;;;19.00;17.25;;;;;21.10;71.02;101315.72;4913897;28;45507;-76
2021/09/05 03:55:35;;;;;;;;;20.75;19.75;;;;;21.12;70.99;101327.09;4915162;28;45844;-76
2021/09/05 03:58:02;;;;;;;;;21.00;16.75;;;;;21.11;70.85;101323.56;4921113;28;46030;-76
2021/09/05 04:00:28;;;;;;;;;16.00;16.00;;;;;21.11;71.08;101318.19;4924937;28;45823;-76
2021/09/05 04:02:54;;;;;;;;;19.25;17.25;;;;;21.12;71.39;101324.41;4916579;28;45483;-76
2021/09/05 04:05:19;;;;;;;;;18.75;18.00;;;;;21.10;71.36;101321.91;4927472;28;48162;-76
2021/09/05 04:10:43;;;;;;;;;22.25;19.75;;;;;21.09;71.31;101331.00;4865615;28;45504;-76
2021/09/05 04:13:14;;;;;;;;;20.50;18.50;;;;;21.09;71.47;101336.38;4868590;28;46670;-76
2021/09/05 04:15:41;;;;;;;;;14.75;14.75;;;;;21.09;71.24;101332.84;4907352;28;46970;-76
2021/09/05 04:18:06;;;;;;;;;20.00;16.25;;;;;21.07;71.18;101332.22;4869372;29;45490;-76
2021/09/05 04:20:32;;;;;;;;;19.00;15.50;;;;;21.02;71.49;101332.88;4871106;29;45642;-76
2021/09/05 04:22:57;;;;;;;;;16.00;16.00;;;;;20.99;71.04;101338.63;4868865;28;45471;-75
2021/09/05 04:25:22;;;;;;;;;18.50;15.00;;;;;20.96;71.29;101344.41;4869026;28;46103;-76
2021/09/05 04:27:48;;;;;;;;;20.50;18.50;;;;;20.94;71.11;101341.09;4868506;28;45603;-76
2021/09/05 04:30:13;;;;;;;;;18.75;14.75;;;;;20.95;71.25;101340.91;4868179;28;45661;-77
2021/09/05 04:32:39;;;;;;;;;18.25;15.25;;;;;20.97;71.36;101343.41;4871179;29;45541;-76
2021/09/05 04:35:05;;;;;;;;;19.75;16.50;;;;;20.96;71.40;101339.03;4869834;28;47131;-76
2021/09/05 04:37:31;;;;;;;;;20.00;15.50;;;;;20.96;71.45;101345.25;4868056;28;45572;-76
2021/09/05 04:39:57;;;;;;;;;20.25;16.25;;;;;20.95;71.25;101342.78;4868585;28;45821;-76
2021/09/05 04:42:22;;;;;;;;;14.00;14.00;;;;;20.96;71.69;101347.09;4867965;28;45468;-75
2021/09/05 04:44:48;;;;;;;;;15.25;14.25;;;;;20.94;71.40;101351.84;4869889;29;46241;-76
2021/09/05 04:47:13;;;;;;;;;17.75;15.25;;;;;20.94;71.71;101351.84;4913361;28;45555;-76
2021/09/05 04:49:42;;;;;;;;;17.25;17.25;;;;;20.94;71.84;101358.03;4940766;28;45609;-76
2021/09/05 04:52:08;;;;;;;;;15.50;14.25;;;;;20.93;71.52;101351.03;4929127;28;46112;-76
2021/09/05 04:54:33;;;;;;;;;16.25;16.25;;;;;20.94;71.34;101359.91;4931742;28;45442;-76
2021/09/05 04:56:59;;;;;;;;;16.00;15.00;;;;;20.94;71.53;101365.28;4923303;28;45535;-75
2021/09/05 04:59:24;;;;;;;;;17.25;15.00;;;;;20.92;71.82;101357.44;4933955;28;45525;-76
2021/09/05 05:01:50;;;;;;;;;16.25;14.75;;;;;20.93;71.68;101369.81;4932748;28;45525;-76
2021/09/05 05:04:15;;;;;;;;;18.75;14.00;;;;;20.94;71.58;101365.28;4918222;28;47074;-76
2021/09/05 05:06:44;;;;;;;;;16.50;14.50;;;;;20.92;71.67;101370.03;4932297;28;54759;-77
2021/09/05 05:09:10;;;;;;;;;18.50;16.50;;;;;20.92;71.50;101376.25;4928135;28;45531;-74
2021/09/05 05:11:37;;;;;;;;;18.50;17.00;;;;;20.91;71.65;101376.44;4924403;28;45583;-75
2021/09/05 05:14:03;;;;;;;;;19.25;16.00;;;;;20.89;71.76;101382.00;4927198;28;45557;-75
2021/09/05 05:16:28;;;;;;;;;19.50;17.25;;;;;20.84;71.64;101376.41;4936655;28;45482;-75
2021/09/05 05:18:53;;;;;;;;;18.75;15.75;;;;;20.87;71.83;101380.53;4917864;28;45624;-75
2021/09/05 05:21:22;;;;;;;;;16.75;15.50;;;;;20.89;71.55;101389.25;4930853;28;45483;-75
2021/09/05 05:23:47;;;;;;;;;17.50;16.75;;;;;20.90;71.55;101397.09;4921432;28;45958;-76
2021/09/05 05:26:13;;;;;;;;;18.00;14.75;;;;;20.88;71.39;101387.59;4932210;28;46078;-75
2021/09/05 05:28:38;;;;;;;;;17.50;14.75;;;;;20.91;71.55;101400.63;4930358;28;45442;-74
2021/09/05 05:31:03;;;;;;;;;17.50;16.75;;;;;20.92;71.54;101404.94;4927717;28;45613;-74
2021/09/05 05:33:29;;;;;;;;;19.50;16.25;;;;;20.92;71.73;101400.44;4926994;28;46151;-74
2021/09/05 05:35:54;;;;;;;;;18.50;16.50;;;;;20.92;71.73;101399.56;4920433;28;45440;-74
2021/09/05 05:38:19;;;;;;;;;17.25;15.75;;;;;20.90;71.32;101401.66;4929592;28;45607;-74
2021/09/05 05:40:45;;;;;;;;;16.75;15.25;;;;;20.89;71.54;101405.34;4927131;28;45482;-73
2021/09/05 05:43:10;;;;;;;;;18.50;16.25;;;;;20.91;71.63;101409.50;4926081;28;46421;-73
2021/09/05 05:45:35;;;;;;;;;17.25;17.25;;;;;20.93;71.58;101407.44;4926527;28;45467;-73
2021/09/05 05:48:01;;;;;;;;;20.00;16.50;;;;;20.94;71.88;101406.41;4920988;28;45788;-74
2021/09/05 05:50:26;;;;;;;;;17.25;16.25;;;;;20.96;71.10;101408.91;4932017;28;45705;-73
2021/09/05 05:52:52;;;;;;;;;18.75;18.25;;;;;20.98;71.51;101415.72;4926203;28;45996;-74
2021/09/05 05:55:19;;;;;;;;;18.75;16.75;;;;;21.00;71.09;101418.22;4922115;28;45496;-74
2021/09/05 05:57:48;;;;;;;;;18.25;18.25;;;;;21.00;70.81;101415.53;4934550;28;45490;-73
2021/09/05 06:00:14;;;;;;;;;16.25;16.25;;;;;21.00;71.59;101413.66;4930834;28;45630;-73
2021/09/05 06:02:39;;;;;;;;;17.25;15.75;;;;;20.98;71.13;101420.28;4933146;28;46118;-73
2021/09/05 06:05:05;;;;;;;;;17.75;17.50;;;;;21.01;71.23;101418.00;4931296;28;45407;-75
2021/09/05 06:07:31;;;;;;;;;22.00;17.75;;;;;21.04;70.91;101408.72;4936110;28;45711;-73
2021/09/05 06:09:57;;;;;;;;;17.50;17.50;;;;;21.09;70.78;101422.38;4940248;28;45521;-74
2021/09/05 06:12:22;;;;;;;;;17.50;17.00;;;;;21.11;70.93;101414.94;4927456;28;46355;-74
2021/09/05 06:14:47;;;;;;;;;18.25;15.00;;;;;21.14;70.62;101427.13;4925715;28;46144;-74
2021/09/05 06:17:13;;;;;;;;;20.25;19.50;;;;;21.17;70.25;101419.50;4937909;28;45747;-75
2021/09/05 06:19:39;;;;;;;;;18.50;16.00;;;;;21.19;70.81;101421.97;4938938;28;45653;-75
2021/09/05 06:22:05;;;;;;;;;19.75;16.50;;;;;21.25;70.49;101432.75;4940621;28;45652;-75
2021/09/05 06:24:30;;;;;;;;;16.00;15.50;;;;;21.25;70.05;101434.63;4940011;28;51630;-75
2021/09/05 06:26:56;;;;;;;;;14.75;14.75;;;;;21.25;70.83;101432.75;4923357;28;45652;-75
2021/09/05 06:29:22;;;;;;;;;18.50;16.00;;;;;21.25;70.06;101437.31;4940314;28;45538;-75
2021/09/05 06:31:47;;;;;;;;;18.25;15.25;;;;;21.30;70.41;101439.41;4940685;28;46431;-75
2021/09/05 06:34:12;;;;;;;;;18.50;18.00;;;;;21.27;70.26;101441.44;4940046;28;45518;-75
2021/09/05 06:36:38;;;;;;;;;19.25;18.75;;;;;21.31;70.46;101443.72;4928185;28;45920;-75
2021/09/05 06:39:03;;;;;;;;;18.50;16.00;;;;;21.32;69.61;101465.03;4915000;28;45674;-75
2021/09/05 06:41:29;;;;;;;;;18.00;15.50;;;;;21.29;68.56;101459.22;4924759;28;45749;-74
2021/09/05 06:43:56;;;;;;;;;14.00;13.50;;;;;21.26;68.59;101455.94;4931414;28;45632;-75
2021/09/05 06:46:22;;;;;;;;;13.75;13.25;;;;;21.25;69.01;101451.56;4931681;28;50891;-76
2021/09/05 06:48:48;;;;;;;;;15.50;14.75;;;;;21.28;68.72;101463.78;4929486;28;45423;-76
2021/09/05 06:51:13;;;;;;;;;13.25;12.75;;;;;21.30;68.08;101460.91;4920100;28;46144;-76
2021/09/05 06:53:40;;;;;;;;;16.25;15.25;;;;;21.32;68.19;101462.34;4922771;28;45483;-76
2021/09/05 06:56:05;;;;;;;;;15.75;13.50;;;;;21.37;68.64;101469.81;4930927;28;45822;-75
2021/09/05 06:58:31;;;;;;;;;14.00;12.00;;;;;21.45;67.56;101470.47;4936038;28;45454;-77
2021/09/05 07:00:56;;;;;;;;;13.75;12.75;;;;;21.50;67.37;101475.25;4943146;28;45549;-76
2021/09/05 07:03:22;;;;;;;;;14.50;11.25;;;;;21.60;67.11;101477.53;4924446;28;45468;-77
2021/09/05 07:05:47;;;;;;;;;14.25;14.25;;;;;21.69;67.82;101479.84;4916432;28;45462;-75
2021/09/05 07:08:13;;;;;;;;;11.50;10.75;;;;;21.81;67.07;101490.81;4910372;28;45525;-75
2021/09/05 07:10:39;;;;;;;;;12.00;11.25;;;;;21.96;67.05;101485.25;4910873;28;45499;-76
2021/09/05 07:13:05;;;;;;;;;20.00;14.25;;;;;22.10;66.24;101486.06;4911569;28;45530;-75
2021/09/05 07:15:30;;;;;;;;;15.75;13.00;;;;;22.23;66.22;101479.84;4915636;28;45428;-79
2021/09/05 07:17:56;;;;;;;;;15.75;14.50;;;;;22.42;65.91;101481.72;4912098;28;45678;-77
2021/09/05 07:20:21;;;;;;;;;14.25;13.50;;;;;22.64;64.79;101489.53;4912361;28;46554;-77
2021/09/05 07:22:47;;;;;;;;;15.00;13.50;;;;;22.83;64.69;101485.16;4913265;28;45419;-77
2021/09/05 07:25:12;;;;;;;;;13.25;12.75;;;;;23.08;62.67;101490.69;4914570;28;45412;-76
2021/09/05 07:27:38;;;;;;;;;14.50;12.75;;;;;23.18;63.23;101494.56;4916044;28;45711;-77
2021/09/05 07:30:06;;;;;;;;;14.00;13.75;;;;;23.35;61.97;101496.78;4917647;28;46701;-76
2021/09/05 07:32:31;;;;;;;;;15.75;14.25;;;;;23.65;62.52;101493.47;4912496;28;45608;-76
2021/09/05 07:34:57;;;;;;;;;14.00;14.00;;;;;24.08;60.90;101493.59;4910186;28;45732;-76
2021/09/05 07:37:22;;;;;;;;;15.00;13.25;;;;;24.88;60.66;101495.53;4909751;28;45744;-76
2021/09/05 07:39:48;;;;;;;;;13.00;13.00;;;;;25.58;58.61;101491.50;4909458;28;50927;-77
2021/09/05 07:42:13;;;;;;;;;15.00;12.00;;;;;26.10;57.48;101494.47;4907259;28;45541;-77
2021/09/05 07:44:38;;;;;;;;;13.00;13.00;;;;;26.91;56.58;101491.94;4912466;28;45562;-76
2021/09/05 07:47:04;;;;;;;;;14.75;12.00;;;;;28.42;54.00;101501.41;4910574;28;45540;-77
2021/09/05 07:49:29;;;;;;;;;10.00;9.75;;;;;29.93;46.91;101496.31;4910213;28;45494;-77
2021/09/05 07:51:55;;;;;;;;;13.00;11.75;;;;;31.16;47.72;101500.56;4910585;28;45494;-77
2021/09/05 07:54:21;;;;;;;;;13.00;13.00;;;;;32.90;45.39;101507.84;4906545;28;45637;-76
2021/09/05 07:56:47;;;;;;;;;14.25;11.75;;;;;35.04;42.14;101507.06;4919584;28;45396;-77
2021/09/05 07:59:12;;;;;;;;;12.00;11.00;;;;;36.05;40.31;101512.06;4926264;28;45994;-77
2021/09/05 08:01:38;;;;;;;;;12.00;10.50;;;;;38.23;37.97;101508.63;4915921;28;45526;-76
2021/09/05 08:04:04;;;;;;;;;13.00;11.00;;;;;40.74;35.27;101512.38;4910621;28;45716;-77
2021/09/05 08:06:29;;;;;;;;;10.00;9.25;;;;;42.83;32.78;101523.25;4906434;28;45500;-76
2021/09/05 08:08:58;;;;;;;;;10.50;10.25;;;;;44.28;29.25;101536.03;4913675;28;45966;-77
2021/09/05 08:11:26;;;;;;;;;9.50;9.50;;;;;45.85;27.70;101533.03;4929084;28;45391;-77
2021/09/05 08:13:52;;;;;;;;;12.00;10.00;;;;;47.03;25.62;101538.81;4917829;28;45671;-77
2021/09/05 08:16:18;;;;;;;;;14.00;11.00;;;;;47.94;24.54;101543.03;4925497;28;45841;-78
2021/09/05 08:18:44;;;;;;;;;11.25;9.25;;;;;48.98;24.10;101545.75;4910165;28;45639;-77
2021/09/05 08:21:11;;;;;;;;;13.00;12.00;;;;;49.48;22.59;101552.34;4911540;28;45743;-78
2021/09/05 08:23:38;;;;;;;;;12.00;10.50;;;;;49.75;21.53;101554.00;4928939;28;45645;-77
2021/09/05 08:26:06;;;;;;;;;12.00;11.00;;;;;49.69;20.98;101551.59;4914850;28;45546;-77
2021/09/05 08:28:32;;;;;;;;;10.75;8.75;;;;;50.04;20.80;101555.63;4912905;28;45423;-78
2021/09/05 08:30:58;;;;;;;;;11.25;9.50;;;;;50.57;20.09;101559.56;4912928;28;45950;-78
2021/09/05 08:33:24;;;;;;;;;12.75;11.25;;;;;51.10;16.71;101564.25;4910206;28;45447;-78
2021/09/05 08:35:50;;;;;;;;;9.50;9.25;;;;;51.29;18.88;101562.13;4928881;28;45631;-78
2021/09/05 08:38:15;;;;;;;;;12.25;11.75;;;;;51.59;18.63;101558.75;4913215;28;46244;-77
2021/09/05 08:40:47;;;;;;;;;12.50;12.50;;;;;51.72;17.31;101568.34;4912060;28;45605;-78
2021/09/05 08:43:13;;;;;;;;;13.25;12.75;;;;;51.73;17.82;101558.66;4914443;28;45794;-78
2021/09/05 08:45:40;;;;;;;;;11.50;11.50;;;;;52.01;18.01;101554.81;4911257;28;45433;-79
2021/09/05 08:48:07;;;;;;;;;12.00;12.00;;;;;51.85;16.57;101559.38;4924691;28;45986;-79
2021/09/05 08:50:34;;;;;;;;;10.00;10.00;;;;;51.89;17.80;101560.16;4924298;28;45565;-77
2021/09/05 08:53:00;;;;;;;;;10.25;9.25;;;;;52.03;17.06;101565.66;4921833;28;45365;-80
2021/09/05 08:55:26;;;;;;;;;10.75;9.50;;;;;51.86;16.96;101558.16;4922783;28;45620;-77
2021/09/05 08:57:52;;;;;;;;;9.25;8.75;;;;;52.00;15.87;101561.66;4916849;28;45830;-77
2021/09/05 09:00:18;;;;;;;;;10.00;9.50;;;;;51.92;15.89;101564.97;4920575;28;45675;-77
2021/09/05 09:02:53;;;;;;;;;8.75;8.00;;;;;51.64;16.42;101566.78;4926067;28;45365;-77
2021/09/05 09:05:38;;;;;;;;;11.00;9.75;;;;;51.22;16.75;101560.19;4921144;28;45669;-76
2021/09/05 09:08:14;;;;;;;;;11.25;11.25;;;;;50.92;16.91;101560.69;4918451;28;45585;-77
2021/09/05 09:10:53;;;;;;;;;12.25;11.00;;;;;50.94;17.31;101570.31;4918509;28;45489;-78
2021/09/05 09:13:40;;;;;;;;;10.75;9.50;;;;;50.93;16.20;101573.56;4913019;28;45504;-78
2021/09/05 09:16:11;;;;;;;;;9.25;9.00;;;;;50.80;14.16;101563.94;4937971;28;45484;-78
2021/09/05 09:18:39;;;;;;;;;9.25;8.25;;;;;50.36;16.48;101559.66;4926565;28;46451;-78
2021/09/05 09:21:06;;;;;;;;;11.25;8.75;;;;;50.16;16.36;101564.88;4917755;28;45486;-77
2021/09/05 09:23:34;;;;;;;;;8.00;8.00;;;;;50.40;17.08;101566.06;4919831;28;45340;-76
2021/09/05 09:26:08;;;;;;;;;11.00;10.00;;;;;50.91;16.40;101568.31;4923139;28;45736;-76
2021/09/05 09:28:47;;;;;;;;;9.25;9.25;;;;;51.00;16.23;101567.09;4920792;28;45586;-80
2021/09/05 09:31:27;;;;;;;;;10.50;9.25;;;;;51.18;16.25;101565.03;4917016;28;45670;-79
2021/09/05 09:33:59;;;;;;;;;7.75;7.50;;;;;51.83;16.25;101563.41;4914738;28;45415;-78
2021/09/05 09:36:30;;;;;;;;;7.00;6.25;;;;;52.30;15.50;101565.00;4918495;28;45486;-77
2021/09/05 09:39:05;;;;;;;;;9.75;9.75;;;;;51.89;15.43;101571.44;4927607;28;45549;-80
2021/09/05 09:41:37;;;;;;;;;5.75;5.75;;;;;51.46;15.69;101560.44;4921037;28;45534;-82
2021/09/05 09:44:05;;;;;;;;;9.50;9.25;;;;;50.90;15.53;101566.72;4917894;28;45783;-80
2021/09/05 09:46:34;;;;;;;;;10.25;9.25;;;;;50.27;16.54;101563.63;4918860;28;45803;-77
2021/09/05 09:49:08;;;;;;;;;8.50;7.50;;;;;49.50;16.67;101565.97;4916325;28;46248;-78
2021/09/05 09:51:35;;;;;;;;;9.00;9.00;;;;;48.29;17.39;101563.34;4914420;28;45597;-76
2021/09/05 09:54:02;;;;;;;;;9.50;8.00;;;;;46.96;18.50;101550.72;4920057;28;45498;-79
2021/09/05 09:56:28;;;;;;;;;7.75;7.25;;;;;45.80;19.51;101555.66;4920340;28;45625;-75
2021/09/05 09:58:56;;;;;;;;;8.75;7.25;;;;;45.27;20.87;101555.41;4919314;28;45497;-75
2021/09/05 10:01:24;;;;;;;;;7.25;7.25;;;;;44.49;20.04;101563.63;4917441;28;45709;-75
2021/09/05 10:03:56;;;;;;;;;8.75;7.25;;;;;43.71;21.31;101556.81;4921989;28;45486;-75
2021/09/05 10:06:23;;;;;;;;;10.00;8.50;;;;;43.14;21.32;101553.19;4917236;28;45426;-75
2021/09/05 10:08:53;;;;;;;;;69.00;61.25;;;;;42.55;22.56;101540.66;4922062;28;45613;-76
2021/09/05 10:11:20;;;;;;;;;142.50;136.50;;;;;42.14;23.69;101544.41;4919374;28;45606;-76
2021/09/05 10:13:48;;;;;;;;;38.00;31.75;;;;;41.52;23.45;101541.50;4919515;28;45470;-76
2021/09/05 10:16:14;;;;;;;;;126.25;122.75;;;;;41.10;24.28;101535.13;4917164;28;45587;-75
2021/09/05 10:18:45;;;;;;;;;10.00;8.50;;;;;40.68;23.97;101544.22;4916946;28;47063;-78
2021/09/05 10:21:16;;;;;;;;;10.25;8.25;;;;;40.22;24.06;101539.50;4911819;28;45805;-77
2021/09/05 10:23:53;;;;;;;;;45.00;37.25;;;;;39.81;25.17;101544.47;4927205;28;45541;-76
2021/09/05 10:26:20;;;;;;;;;29.50;27.00;;;;;39.54;25.10;101540.94;4912554;28;45617;-77
2021/09/05 10:28:51;;;;;;;;;26.25;25.75;;;;;39.21;26.23;101539.78;4912056;28;47254;-77
2021/09/05 10:31:24;;;;;;;;;10.00;10.00;;;;;38.92;26.50;101536.50;4911736;28;45941;-78
2021/09/05 10:33:50;;;;;;;;;11.50;11.50;;;;;38.75;26.70;101541.13;4910570;28;45593;-78
2021/09/05 10:36:23;;;;;;;;;16.75;14.25;;;;;38.63;26.44;101534.28;4933829;28;46510;-78
2021/09/05 10:38:49;;;;;;;;;11.75;11.00;;;;;38.72;27.01;101531.53;4929788;28;46837;-75
2021/09/05 10:41:24;;;;;;;;;10.00;9.00;;;;;38.81;26.45;101531.56;4935405;28;45422;-77
2021/09/05 10:44:03;;;;;;;;;22.75;22.00;;;;;38.88;26.57;101529.16;4927380;28;45511;-78
2021/09/05 10:46:34;;;;;;;;;11.00;10.50;;;;;38.87;26.85;101530.28;4935926;28;45446;-77
2021/09/05 10:49:02;;;;;;;;;11.25;10.25;;;;;38.93;26.74;101540.06;4940366;28;45817;-78
2021/09/05 10:51:47;;;;;;;;;12.75;9.75;;;;;38.98;26.52;101531.63;4932543;28;45486;-77
2021/09/05 10:54:24;;;;;;;;;11.25;10.25;;;;;39.13;27.41;101535.88;4930959;28;45883;-78
2021/09/05 10:56:50;;;;;;;;;11.50;10.75;;;;;39.25;26.79;101536.03;4924178;28;45782;-78
2021/09/05 10:59:19;;;;;;;;;9.75;9.50;;;;;39.31;26.86;101537.50;4937745;28;45511;-78
2021/09/05 11:01:48;;;;;;;;;9.00;7.50;;;;;39.28;26.50;101527.09;4923809;28;45436;-77
2021/09/05 11:04:14;;;;;;;;;10.25;9.25;;;;;39.38;25.58;101536.22;4938107;28;45477;-78
2021/09/05 11:06:50;;;;;;;;;9.50;9.50;;;;;39.34;25.58;101525.84;4933527;28;45689;-76
2021/09/05 11:09:20;;;;;;;;;10.00;10.00;;;;;39.11;25.99;101521.56;4920261;28;46251;-79
2021/09/05 11:12:29;;;;;;;;;8.50;8.25;;;;;39.19;26.58;101517.16;4930640;28;45484;-78
2021/09/05 11:14:56;;;;;;;;;8.50;8.00;;;;;39.29;26.77;101525.94;4913589;28;45510;-80